Time;durP1;ratioP1;P1;durP2;ratioP2;P2;SDS_P1;SDS_P2;PMS_P1;PMS_P2;Temp;Humidity;BMP_temperature;BMP_pressure;BME280_temperature;BME280_humidity;BME280_pressure;Samples;Min_cycle;Max_cycle;Signal;HPM_P1;HPM_P2
2024/01/30 00:01:27;;;;;;;7.28;5.30;;;;;;;;;;10157655;29;20073;-76
2024/01/30 00:06:31;;;;;;;8.93;5.55;;;;;;;;;;10160575;29;20044;-76
2024/01/30 00:11:36;;;;;;;13.77;6.20;;;;;;;;;;10155430;29;20054;-76
2024/01/30 00:16:39;;;;;;;7.45;5.05;;;;;;;;;;10155174;29;20135;-76
2024/01/30 00:21:42;;;;;;;8.02;6.03;;;;;;;;;;10163470;29;20048;-76
2024/01/30 00:26:47;;;;;;;9.95;5.95;;;;;;;;;;10158726;29;20641;-76
2024/01/30 00:31:50;;;;;;;9.13;5.65;;;;;;;;;;10155572;29;20060;-76
2024/01/30 00:36:53;;;;;;;9.00;6.18;;;;;;;;;;10152411;29;20049;-76
2024/01/30 00:41:58;;;;;;;9.43;5.97;;;;;;;;;;10158006;29;20131;-76
2024/01/30 00:47:01;;;;;;;11.77;6.85;;;;;;;;;;10152452;29;20061;-76
2024/01/30 00:52:05;;;;;;;7.93;5.25;;;;;;;;;;10152727;29;20539;-76
2024/01/30 00:57:10;;;;;;;9.02;6.20;;;;;;;;;;10157858;29;20062;-76
2024/01/30 01:02:15;;;;;;;12.88;6.70;;;;;;;;;;10153942;29;20147;-76
2024/01/30 01:07:18;;;;;;;9.85;6.13;;;;;;;;;;10157359;29;20711;-76
2024/01/30 01:12:22;;;;;;;13.50;6.28;;;;;;;;;;10156231;29;20520;-76
2024/01/30 01:17:26;;;;;;;9.40;5.38;;;;;;;;;;10155352;29;20055;-76
2024/01/30 01:22:29;;;;;;;9.88;6.07;;;;;;;;;;10165620;29;20407;-76
2024/01/30 01:27:34;;;;;;;9.57;6.20;;;;;;;;;;10163329;29;20585;-76
2024/01/30 01:32:38;;;;;;;9.60;5.93;;;;;;;;;;10163869;29;20048;-76
2024/01/30 01:37:41;;;;;;;8.80;5.18;;;;;;;;;;10164169;29;20135;-76
2024/01/30 01:42:46;;;;;;;8.20;4.93;;;;;;;;;;10164294;29;20419;-76
2024/01/30 01:47:52;;;;;;;7.70;4.72;;;;;;;;;;10161087;29;20156;-76
2024/01/30 01:52:57;;;;;;;6.40;4.50;;;;;;;;;;10162872;29;20136;-76
2024/01/30 01:58:02;;;;;;;7.03;4.15;;;;;;;;;;10161432;29;20059;-76
2024/01/30 02:03:06;;;;;;;6.93;4.43;;;;;;;;;;10161957;29;20063;-76
2024/01/30 02:08:10;;;;;;;8.43;4.65;;;;;;;;;;10153096;29;20074;-76
2024/01/30 02:13:14;;;;;;;5.72;4.35;;;;;;;;;;10155182;29;20120;-76
2024/01/30 02:18:18;;;;;;;7.20;4.22;;;;;;;;;;10160388;29;20048;-76
2024/01/30 02:23:24;;;;;;;6.15;4.05;;;;;;;;;;10163750;29;20075;-76
2024/01/30 02:28:28;;;;;;;6.68;4.88;;;;;;;;;;10162064;29;20048;-76
2024/01/30 02:33:31;;;;;;;7.18;3.92;;;;;;;;;;10160024;29;20052;-76
2024/01/30 02:38:36;;;;;;;5.90;3.85;;;;;;;;;;10154323;29;20048;-76
2024/01/30 02:43:39;;;;;;;4.95;3.72;;;;;;;;;;10160737;29;20055;-76
2024/01/30 02:48:42;;;;;;;5.80;3.90;;;;;;;;;;10155788;29;20056;-76
2024/01/30 02:53:47;;;;;;;5.32;3.90;;;;;;;;;;10152972;29;20130;-76
2024/01/30 02:58:50;;;;;;;6.00;4.32;;;;;;;;;;10154310;29;20139;-76
2024/01/30 03:03:54;;;;;;;5.97;4.07;;;;;;;;;;10156311;29;20052;-76
2024/01/30 03:08:58;;;;;;;5.65;3.72;;;;;;;;;;10155003;29;20413;-76
2024/01/30 03:14:02;;;;;;;4.93;3.65;;;;;;;;;;10158978;29;20048;-76
2024/01/30 03:19:07;;;;;;;5.38;3.40;;;;;;;;;;10159472;29;20067;-76
2024/01/30 03:24:12;;;;;;;6.13;4.13;;;;;;;;;;10156495;29;20614;-76
2024/01/30 03:29:15;;;;;;;7.38;5.38;;;;;;;;;;10155606;29;20059;-76
2024/01/30 03:34:18;;;;;;;7.75;5.07;;;;;;;;;;10156462;29;20055;-76
2024/01/30 03:39:23;;;;;;;6.15;4.22;;;;;;;;;;10153597;29;20047;-76
2024/01/30 03:44:26;;;;;;;6.50;4.05;;;;;;;;;;10154962;29;20054;-76
2024/01/30 03:49:30;;;;;;;7.78;4.70;;;;;;;;;;10153705;29;20504;-76
2024/01/30 03:54:34;;;;;;;7.22;4.20;;;;;;;;;;10154343;29;20646;-76
2024/01/30 03:59:38;;;;;;;6.63;4.40;;;;;;;;;;10155777;29;20055;-76
2024/01/30 04:04:41;;;;;;;6.25;4.03;;;;;;;;;;10157006;29;20067;-76
2024/01/30 04:09:46;;;;;;;6.70;4.32;;;;;;;;;;10149522;29;20064;-76
2024/01/30 04:14:49;;;;;;;4.93;4.05;;;;;;;;;;10157734;29;20070;-75
2024/01/30 04:19:52;;;;;;;7.30;3.95;;;;;;;;;;10150533;29;20067;-76
2024/01/30 04:24:57;;;;;;;7.40;4.97;;;;;;;;;;10158124;29;20071;-75
2024/01/30 04:30:00;;;;;;;7.30;4.65;;;;;;;;;;10154236;29;20139;-76
2024/01/30 04:35:04;;;;;;;6.82;4.80;;;;;;;;;;10155543;29;20471;-76
2024/01/30 04:40:12;;;;;;;6.78;4.50;;;;;;;;;;10154475;29;20562;-76
2024/01/30 04:45:15;;;;;;;6.07;4.27;;;;;;;;;;10148423;29;20080;-76
2024/01/30 04:50:19;;;;;;;6.82;4.85;;;;;;;;;;10156144;29;20593;-76
2024/01/30 04:55:23;;;;;;;7.68;4.70;;;;;;;;;;10153853;29;20048;-75
2024/01/30 05:00:27;;;;;;;9.05;5.93;;;;;;;;;;10157969;29;20062;-75
2024/01/30 05:05:30;;;;;;;7.82;5.75;;;;;;;;;;10156534;29;20508;-75
2024/01/30 05:10:35;;;;;;;10.93;5.25;;;;;;;;;;10180978;23;20063;-76
2024/01/30 05:15:38;;;;;;;7.05;4.72;;;;;;;;;;10189781;28;20052;-76
2024/01/30 05:20:42;;;;;;;7.90;4.75;;;;;;;;;;10165178;29;20456;-76
2024/01/30 05:25:46;;;;;;;7.63;4.50;;;;;;;;;;10158971;29;20167;-76
2024/01/30 05:30:50;;;;;;;7.65;5.05;;;;;;;;;;10162622;29;20048;-76
2024/01/30 05:35:54;;;;;;;7.50;5.05;;;;;;;;;;10155544;29;20059;-76
2024/01/30 05:40:59;;;;;;;7.05;4.95;;;;;;;;;;10158921;29;20052;-76
2024/01/30 05:46:02;;;;;;;6.75;4.75;;;;;;;;;;10147735;29;20733;-76
2024/01/30 05:51:07;;;;;;;6.93;4.55;;;;;;;;;;10159724;29;20056;-76
2024/01/30 05:56:12;;;;;;;6.47;4.37;;;;;;;;;;10162950;29;20063;-76
2024/01/30 06:01:15;;;;;;;6.15;3.72;;;;;;;;;;10159213;29;20073;-76
2024/01/30 06:06:19;;;;;;;5.75;4.25;;;;;;;;;;10146446;29;20108;-76
2024/01/30 06:11:24;;;;;;;7.50;4.47;;;;;;;;;;10161047;29;20689;-76
2024/01/30 06:16:29;;;;;;;8.60;4.55;;;;;;;;;;10160543;29;20048;-76
2024/01/30 06:21:36;;;;;;;7.37;4.70;;;;;;;;;;10162729;29;20103;-76
2024/01/30 06:26:41;;;;;;;7.88;5.45;;;;;;;;;;10162810;29;20460;-76
2024/01/30 06:31:44;;;;;;;9.50;5.47;;;;;;;;;;10167867;29;20048;-76
2024/01/30 06:36:47;;;;;;;8.75;4.95;;;;;;;;;;10161309;29;20060;-76
2024/01/30 06:41:52;;;;;;;7.15;5.03;;;;;;;;;;10160241;29;20067;-76
2024/01/30 06:46:56;;;;;;;7.75;4.63;;;;;;;;;;10150602;29;20064;-76
2024/01/30 06:51:59;;;;;;;7.22;5.00;;;;;;;;;;10170411;28;20127;-76
2024/01/30 06:57:04;;;;;;;6.40;4.47;;;;;;;;;;10156080;29;20649;-76
2024/01/30 07:02:07;;;;;;;7.55;4.68;;;;;;;;;;10155513;29;20516;-76
2024/01/30 07:07:12;;;;;;;5.95;4.40;;;;;;;;;;10150256;29;20430;-76
2024/01/30 07:12:17;;;;;;;8.43;5.07;;;;;;;;;;10152377;29;20066;-76
2024/01/30 07:17:20;;;;;;;6.45;4.82;;;;;;;;;;10158075;29;20084;-76
2024/01/30 07:22:24;;;;;;;6.22;4.35;;;;;;;;;;10148386;29;20056;-76
2024/01/30 07:27:29;;;;;;;6.68;4.40;;;;;;;;;;10152569;29;20056;-76
2024/01/30 07:32:32;;;;;;;20.55;9.75;;;;;;;;;;10153969;29;20059;-76
2024/01/30 07:37:36;;;;;;;22.90;11.32;;;;;;;;;;10154673;29;20052;-76
2024/01/30 07:42:40;;;;;;;25.02;14.88;;;;;;;;;;10154980;29;20044;-76
2024/01/30 07:47:44;;;;;;;24.63;15.38;;;;;;;;;;10155090;29;20585;-77
2024/01/30 07:52:51;;;;;;;26.27;14.68;;;;;;;;;;10159639;29;20092;-76
2024/01/30 07:57:55;;;;;;;24.23;14.10;;;;;;;;;;10155122;29;20079;-76
2024/01/30 08:02:59;;;;;;;17.00;9.63;;;;;;;;;;10152076;29;20060;-76
2024/01/30 08:08:02;;;;;;;11.15;6.78;;;;;;;;;;10155308;29;20428;-76
2024/01/30 08:13:08;;;;;;;9.20;6.45;;;;;;;;;;10151916;29;20135;-76
2024/01/30 08:18:12;;;;;;;8.88;5.80;;;;;;;;;;10157960;29;20064;-76
2024/01/30 08:23:15;;;;;;;8.15;5.82;;;;;;;;;;10171369;29;20107;-76
2024/01/30 08:28:20;;;;;;;7.53;5.50;;;;;;;;;;10157338;29;20531;-76
2024/01/30 08:33:24;;;;;;;6.57;4.93;;;;;;;;;;10163736;29;20059;-76
2024/01/30 08:38:27;;;;;;;10.18;6.25;;;;;;;;;;10154937;29;20080;-76
2024/01/30 08:43:32;;;;;;;7.30;5.15;;;;;;;;;;10163889;29;20063;-76
2024/01/30 08:48:37;;;;;;;11.73;6.75;;;;;;;;;;10155670;29;20150;-76
2024/01/30 08:53:40;;;;;;;6.95;5.13;;;;;;;;;;10164344;29;20439;-77
2024/01/30 08:58:45;;;;;;;7.93;4.85;;;;;;;;;;10163396;29;20048;-76
2024/01/30 09:03:49;;;;;;;6.97;4.82;;;;;;;;;;10163969;29;20135;-77
2024/01/30 09:08:52;;;;;;;6.18;4.07;;;;;;;;;;10166261;29;20079;-77
2024/01/30 09:13:57;;;;;;;5.70;4.30;;;;;;;;;;10161750;29;20059;-77
2024/01/30 09:19:00;;;;;;;8.23;5.05;;;;;;;;;;10168479;29;20084;-77
2024/01/30 09:24:05;;;;;;;6.03;4.15;;;;;;;;;;10165414;29;20063;-77
2024/01/30 09:29:10;;;;;;;8.05;4.50;;;;;;;;;;10164521;29;20589;-77
2024/01/30 09:34:13;;;;;;;5.22;3.40;;;;;;;;;;10168237;29;20059;-77
2024/01/30 09:39:17;;;;;;;5.15;3.72;;;;;;;;;;10166419;29;20063;-77
2024/01/30 09:44:22;;;;;;;6.25;3.85;;;;;;;;;;10165816;29;20084;-77
2024/01/30 09:49:27;;;;;;;6.13;3.73;;;;;;;;;;10162544;29;20048;-77
2024/01/30 09:54:31;;;;;;;5.65;3.92;;;;;;;;;;10165699;29;20048;-76
2024/01/30 09:59:38;;;;;;;6.03;3.58;;;;;;;;;;10164656;29;20147;-77
2024/01/30 10:04:42;;;;;;;7.95;3.90;;;;;;;;;;10166540;29;20052;-77
2024/01/30 10:09:45;;;;;;;4.78;3.60;;;;;;;;;;10167354;29;20539;-77
2024/01/30 10:14:50;;;;;;;5.68;3.00;;;;;;;;;;10163471;29;20092;-77
2024/01/30 10:19:53;;;;;;;8.98;4.25;;;;;;;;;;10164207;29;20682;-77
2024/01/30 10:24:57;;;;;;;6.18;3.70;;;;;;;;;;10164343;29;20052;-77
2024/01/30 10:30:03;;;;;;;4.75;3.00;;;;;;;;;;10160093;29;20052;-77
2024/01/30 10:35:08;;;;;;;5.90;3.53;;;;;;;;;;10155319;29;20091;-77
2024/01/30 10:40:15;;;;;;;6.30;3.22;;;;;;;;;;10143900;29;20052;-77
2024/01/30 10:45:31;;;;;;;6.28;3.28;;;;;;;;;;10162269;29;20051;-77
2024/01/30 10:50:37;;;;;;;5.47;3.85;;;;;;;;;;10157601;29;20099;-77
2024/01/30 10:55:46;;;;;;;4.57;2.97;;;;;;;;;;10155581;29;20056;-77
2024/01/30 11:00:51;;;;;;;3.65;2.88;;;;;;;;;;10160275;29;20123;-76
2024/01/30 11:05:54;;;;;;;4.27;3.33;;;;;;;;;;10161039;29;20048;-77
2024/01/30 11:10:58;;;;;;;5.82;3.22;;;;;;;;;;10241264;23;20621;-74
2024/01/30 11:16:04;;;;;;;3.58;2.63;;;;;;;;;;10193042;28;20444;-74
2024/01/30 11:21:08;;;;;;;4.20;2.67;;;;;;;;;;10200155;28;20083;-74
2024/01/30 11:26:12;;;;;;;5.00;2.90;;;;;;;;;;10199405;28;20075;-74
2024/01/30 11:31:20;;;;;;;4.28;2.90;;;;;;;;;;10196710;28;20092;-74
2024/01/30 11:36:26;;;;;;;3.10;2.45;;;;;;;;;;10199356;28;20107;-74
2024/01/30 11:41:30;;;;;;;;;;;;;;;;;;10198291;29;20201;-74
2024/01/30 11:46:35;;;;;;;4.50;2.63;;;;;;;;;;10199703;28;20540;-74
2024/01/30 11:51:39;;;;;;;5.83;3.57;;;;;;;;;;10187747;28;20063;-74
2024/01/30 11:56:43;;;;;;;5.80;3.50;;;;;;;;;;10195728;28;20155;-74
2024/01/30 12:01:47;;;;;;;6.28;3.65;;;;;;;;;;10201695;28;20048;-74
2024/01/30 12:06:53;;;;;;;4.50;2.80;;;;;;;;;;10195279;28;20071;-74
2024/01/30 12:11:56;;;;;;;6.57;3.97;;;;;;;;;;10193620;28;20045;-74
2024/01/30 12:17:01;;;;;;;7.00;4.28;;;;;;;;;;10195629;28;20059;-74
2024/01/30 12:22:04;;;;;;;5.20;3.08;;;;;;;;;;10193142;28;20682;-74
2024/01/30 12:27:08;;;;;;;4.57;2.67;;;;;;;;;;10197037;28;20443;-74
2024/01/30 12:32:17;;;;;;;5.78;3.10;;;;;;;;;;10195999;29;20052;-74
2024/01/30 12:37:22;;;;;;;4.53;2.75;;;;;;;;;;10196744;28;20612;-74
2024/01/30 12:42:28;;;;;;;4.88;2.53;;;;;;;;;;10193788;29;20091;-74
2024/01/30 12:47:33;;;;;;;3.50;2.57;;;;;;;;;;10199930;28;20055;-74
2024/01/30 12:52:36;;;;;;;3.60;2.45;;;;;;;;;;10200850;29;20046;-74
2024/01/30 12:57:40;;;;;;;6.65;3.58;;;;;;;;;;10192320;29;20495;-74
2024/01/30 13:02:45;;;;;;;5.45;2.70;;;;;;;;;;10194145;28;20043;-74
2024/01/30 13:07:48;;;;;;;3.35;2.38;;;;;;;;;;10193937;28;20098;-74
2024/01/30 13:12:51;;;;;;;3.95;2.25;;;;;;;;;;10192062;29;20420;-74
2024/01/30 13:17:56;;;;;;;2.83;1.75;;;;;;;;;;10205604;28;20067;-74
2024/01/30 13:22:59;;;;;;;6.35;3.17;;;;;;;;;;10205048;29;20040;-74
2024/01/30 13:28:02;;;;;;;4.78;2.63;;;;;;;;;;10204877;28;20044;-74
2024/01/30 13:33:07;;;;;;;5.85;2.80;;;;;;;;;;10205763;29;20051;-74
2024/01/30 13:38:10;;;;;;;4.32;2.58;;;;;;;;;;10204577;28;20066;-74
2024/01/30 13:43:13;;;;;;;6.20;3.15;;;;;;;;;;10202982;28;20044;-74
2024/01/30 13:48:18;;;;;;;3.55;2.35;;;;;;;;;;10198237;28;20060;-75
2024/01/30 13:53:22;;;;;;;6.55;2.97;;;;;;;;;;10199186;28;20407;-74
2024/01/30 13:58:25;;;;;;;5.53;3.00;;;;;;;;;;10200779;28;20066;-74
2024/01/30 14:03:30;;;;;;;4.35;2.45;;;;;;;;;;10202701;28;20744;-74
2024/01/30 14:08:33;;;;;;;5.43;3.20;;;;;;;;;;10206006;28;20058;-74
2024/01/30 14:13:37;;;;;;;6.15;3.20;;;;;;;;;;10201934;28;20050;-74
2024/01/30 14:18:41;;;;;;;7.63;3.88;;;;;;;;;;10193758;28;20047;-74
2024/01/30 14:23:44;;;;;;;4.28;2.38;;;;;;;;;;10194949;28;20063;-74
2024/01/30 14:28:48;;;;;;;3.20;1.90;;;;;;;;;;10194087;28;20272;-74
2024/01/30 14:33:53;;;;;;;2.75;1.83;;;;;;;;;;10193062;28;20059;-75
2024/01/30 14:38:56;;;;;;;2.83;1.85;;;;;;;;;;10191216;29;20062;-74
2024/01/30 14:43:59;;;;;;;2.72;2.05;;;;;;;;;;10197199;28;20098;-74
2024/01/30 14:49:05;;;;;;;4.53;2.30;;;;;;;;;;10195069;28;20067;-74
2024/01/30 14:54:08;;;;;;;6.10;2.85;;;;;;;;;;10195592;29;20091;-74
2024/01/30 14:59:12;;;;;;;4.20;2.50;;;;;;;;;;10197110;28;20058;-74
2024/01/30 15:04:17;;;;;;;4.00;2.22;;;;;;;;;;10191501;28;20132;-74
2024/01/30 15:09:22;;;;;;;3.22;2.00;;;;;;;;;;10197591;28;20048;-74
2024/01/30 15:14:25;;;;;;;5.82;2.58;;;;;;;;;;10202286;28;20127;-74
2024/01/30 15:19:30;;;;;;;5.15;2.75;;;;;;;;;;10203881;28;20063;-74
2024/01/30 15:24:33;;;;;;;4.43;2.47;;;;;;;;;;10199735;28;20048;-74
2024/01/30 15:29:36;;;;;;;5.95;3.40;;;;;;;;;;10199827;29;20048;-74
2024/01/30 15:34:41;;;;;;;7.15;4.45;;;;;;;;;;10203144;28;20052;-74
2024/01/30 15:39:45;;;;;;;6.10;3.67;;;;;;;;;;10200234;28;20151;-74
2024/01/30 15:44:48;;;;;;;7.75;4.43;;;;;;;;;;10204880;28;20051;-74
2024/01/30 15:49:53;;;;;;;9.70;5.28;;;;;;;;;;10201716;28;20942;-74
2024/01/30 15:54:56;;;;;;;7.38;4.10;;;;;;;;;;10204873;28;20122;-74
2024/01/30 15:59:59;;;;;;;9.07;5.07;;;;;;;;;;10205727;28;20067;-74
2024/01/30 16:05:05;;;;;;;7.30;4.18;;;;;;;;;;10200094;28;20089;-74
2024/01/30 16:10:08;;;;;;;10.00;6.38;;;;;;;;;;10199611;29;20428;-74
2024/01/30 16:15:12;;;;;;;6.18;4.28;;;;;;;;;;10202527;28;20075;-74
2024/01/30 16:20:16;;;;;;;6.93;3.78;;;;;;;;;;10203927;28;20079;-74
2024/01/30 16:25:21;;;;;;;13.88;7.40;;;;;;;;;;10198166;28;20043;-74
2024/01/30 16:30:24;;;;;;;11.45;7.30;;;;;;;;;;10201392;29;20488;-74
2024/01/30 16:35:29;;;;;;;23.33;13.07;;;;;;;;;;10194061;28;20539;-74
2024/01/30 16:40:33;;;;;;;10.43;7.45;;;;;;;;;;10197798;28;20127;-74
2024/01/30 16:45:37;;;;;;;6.93;5.30;;;;;;;;;;10199912;29;20491;-74
2024/01/30 16:50:41;;;;;;;8.25;5.55;;;;;;;;;;10200958;28;20431;-74
2024/01/30 16:55:45;;;;;;;12.93;7.20;;;;;;;;;;10206315;28;20047;-74
2024/01/30 17:00:48;;;;;;;11.00;6.97;;;;;;;;;;10208484;28;20059;-74
2024/01/30 17:05:55;;;;;;;10.68;6.75;;;;;;;;;;10204151;28;20051;-74
2024/01/30 17:10:59;;;;;;;13.93;8.75;;;;;;;;;;10219644;23;20488;-76
2024/01/30 17:16:02;;;;;;;8.23;5.82;;;;;;;;;;10165900;28;20289;-75
2024/01/30 17:21:08;;;;;;;11.82;7.72;;;;;;;;;;10163656;29;20072;-75
2024/01/30 17:26:12;;;;;;;11.35;6.88;;;;;;;;;;10157520;29;20559;-75
2024/01/30 17:31:15;;;;;;;12.48;7.10;;;;;;;;;;10160636;29;20050;-75
2024/01/30 17:36:21;;;;;;;12.63;7.95;;;;;;;;;;10160011;29;20099;-75
2024/01/30 17:41:24;;;;;;;9.60;6.53;;;;;;;;;;10156988;29;20079;-75
2024/01/30 17:46:27;;;;;;;8.15;6.13;;;;;;;;;;10158501;29;20056;-75
2024/01/30 17:51:33;;;;;;;10.70;6.32;;;;;;;;;;10163952;29;20056;-75
2024/01/30 17:56:37;;;;;;;11.70;6.47;;;;;;;;;;10156585;29;20075;-75
2024/01/30 18:01:40;;;;;;;12.70;7.30;;;;;;;;;;10157862;29;20059;-75
2024/01/30 18:06:49;;;;;;;11.48;6.97;;;;;;;;;;10159496;29;20044;-75
2024/01/30 18:11:53;;;;;;;13.93;6.80;;;;;;;;;;10143733;29;20048;-75
2024/01/30 18:16:56;;;;;;;12.90;8.50;;;;;;;;;;10156686;29;20768;-75
2024/01/30 18:22:01;;;;;;;19.55;9.98;;;;;;;;;;10161263;29;20143;-76
2024/01/30 18:27:05;;;;;;;39.78;20.35;;;;;;;;;;10159676;29;20490;-75
2024/01/30 18:32:08;;;;;;;22.55;12.85;;;;;;;;;;10156564;29;20052;-75
2024/01/30 18:37:13;;;;;;;14.85;7.13;;;;;;;;;;10161039;29;20571;-75
2024/01/30 18:42:17;;;;;;;8.52;5.35;;;;;;;;;;10156225;29;20052;-75
2024/01/30 18:47:21;;;;;;;8.13;5.30;;;;;;;;;;10161638;29;20064;-75
2024/01/30 18:52:26;;;;;;;6.75;4.15;;;;;;;;;;10160526;29;20048;-75
2024/01/30 18:57:29;;;;;;;9.10;4.82;;;;;;;;;;10157270;29;20052;-75
2024/01/30 19:02:33;;;;;;;7.38;4.40;;;;;;;;;;10159145;29;20628;-75
2024/01/30 19:07:37;;;;;;;5.80;3.97;;;;;;;;;;10158790;29;20145;-75
2024/01/30 19:12:42;;;;;;;5.75;4.30;;;;;;;;;;10156706;29;20053;-75
2024/01/30 19:17:46;;;;;;;5.47;3.63;;;;;;;;;;10160997;29;20052;-75
2024/01/30 19:22:51;;;;;;;5.50;3.78;;;;;;;;;;10161820;29;20613;-75
2024/01/30 19:27:57;;;;;;;6.57;4.53;;;;;;;;;;10159178;29;20052;-75
2024/01/30 19:33:01;;;;;;;5.95;4.50;;;;;;;;;;10161642;29;20056;-75
2024/01/30 19:38:08;;;;;;;8.10;4.03;;;;;;;;;;10158047;29;20066;-75
2024/01/30 19:43:11;;;;;;;8.18;5.38;;;;;;;;;;10157322;29;20060;-75
2024/01/30 19:48:15;;;;;;;16.45;11.05;;;;;;;;;;10161703;29;20060;-75
2024/01/30 19:53:20;;;;;;;10.82;7.35;;;;;;;;;;10157231;29;20052;-75
2024/01/30 19:58:24;;;;;;;9.77;7.03;;;;;;;;;;10155785;29;20053;-75
2024/01/30 20:03:28;;;;;;;14.35;7.13;;;;;;;;;;10161036;29;20104;-75
2024/01/30 20:08:34;;;;;;;13.77;7.90;;;;;;;;;;10156634;29;20516;-75
2024/01/30 20:13:39;;;;;;;;;;;;;;;;;;10158379;29;20499;-75
2024/01/30 20:18:43;;;;;;;13.40;8.73;;;;;;;;;;10157585;29;20009;-76
2024/01/30 20:23:49;;;;;;;15.45;9.43;;;;;;;;;;10159592;29;20043;-75
2024/01/30 20:28:54;;;;;;;11.00;6.88;;;;;;;;;;10158297;29;20136;-75
2024/01/30 20:33:57;;;;;;;13.40;9.15;;;;;;;;;;10153010;29;20115;-76
2024/01/30 20:39:03;;;;;;;15.52;8.45;;;;;;;;;;10157845;29;20052;-76
2024/01/30 20:44:07;;;;;;;17.00;8.82;;;;;;;;;;10167710;29;20075;-75
2024/01/30 20:49:11;;;;;;;15.48;7.90;;;;;;;;;;10160900;29;20063;-75
2024/01/30 20:54:18;;;;;;;12.48;7.15;;;;;;;;;;10165781;29;20572;-75
2024/01/30 20:59:21;;;;;;;9.30;5.40;;;;;;;;;;10162738;29;20138;-75
2024/01/30 21:04:24;;;;;;;7.32;4.63;;;;;;;;;;10158879;29;20064;-75
2024/01/30 21:09:29;;;;;;;10.70;6.65;;;;;;;;;;10157178;29;20044;-75
2024/01/30 21:14:32;;;;;;;14.55;8.30;;;;;;;;;;10149327;29;20052;-75
2024/01/30 21:19:36;;;;;;;10.43;6.32;;;;;;;;;;10154215;29;20064;-75
2024/01/30 21:24:41;;;;;;;11.15;6.53;;;;;;;;;;10158875;29;20052;-75
2024/01/30 21:29:44;;;;;;;12.45;7.55;;;;;;;;;;10152772;29;20048;-75
2024/01/30 21:34:48;;;;;;;11.40;6.97;;;;;;;;;;10152653;29;20107;-75
2024/01/30 21:39:54;;;;;;;9.50;6.50;;;;;;;;;;10167736;29;20063;-75
2024/01/30 21:44:57;;;;;;;6.78;4.65;;;;;;;;;;10171635;29;20052;-75
2024/01/30 21:50:02;;;;;;;6.68;4.03;;;;;;;;;;10163815;29;20064;-76
2024/01/30 21:55:10;;;;;;;10.50;5.18;;;;;;;;;;10161091;29;20076;-75
2024/01/30 22:00:15;;;;;;;7.00;4.18;;;;;;;;;;10165928;29;20178;-75
2024/01/30 22:05:19;;;;;;;5.63;4.43;;;;;;;;;;10160966;29;20060;-75
2024/01/30 22:10:24;;;;;;;8.07;5.30;;;;;;;;;;10159060;29;20056;-75
2024/01/30 22:15:28;;;;;;;8.65;4.95;;;;;;;;;;10160181;29;20060;-75
2024/01/30 22:20:32;;;;;;;7.55;5.70;;;;;;;;;;10156693;29;20048;-76
2024/01/30 22:25:37;;;;;;;10.65;6.72;;;;;;;;;;10147886;29;20059;-76
2024/01/30 22:30:40;;;;;;;7.68;4.95;;;;;;;;;;10166917;29;20056;-76
2024/01/30 22:35:43;;;;;;;7.88;4.47;;;;;;;;;;10160417;29;20131;-75
2024/01/30 22:40:48;;;;;;;8.77;5.93;;;;;;;;;;10163099;29;20092;-75
2024/01/30 22:45:52;;;;;;;8.35;5.70;;;;;;;;;;10159468;29;20044;-75
2024/01/30 22:50:55;;;;;;;7.53;4.57;;;;;;;;;;10167956;29;20059;-75
2024/01/30 22:56:00;;;;;;;5.82;4.30;;;;;;;;;;10159178;29;20084;-75
2024/01/30 23:01:03;;;;;;;6.50;4.32;;;;;;;;;;10152859;29;20432;-76
2024/01/30 23:06:09;;;;;;;5.88;4.15;;;;;;;;;;10161133;29;20051;-75
2024/01/30 23:11:14;;;;;;;4.28;3.75;;;;;;;;;;10163663;29;20061;-75
2024/01/30 23:16:18;;;;;;;4.88;3.72;;;;;;;;;;10159994;29;20502;-75
2024/01/30 23:21:21;;;;;;;5.28;3.80;;;;;;;;;;10166648;29;20427;-75
2024/01/30 23:26:26;;;;;;;6.15;4.20;;;;;;;;;;10157488;29;20063;-75
2024/01/30 23:31:29;;;;;;;5.95;3.92;;;;;;;;;;10159174;29;20052;-76
2024/01/30 23:36:33;;;;;;;4.78;3.58;;;;;;;;;;10162379;29;20131;-76
2024/01/30 23:41:37;;;;;;;4.88;3.50;;;;;;;;;;10160632;29;20127;-76
2024/01/30 23:46:41;;;;;;;5.53;4.18;;;;;;;;;;10161983;29;20052;-76
2024/01/30 23:51:45;;;;;;;4.95;3.85;;;;;;;;;;10164354;29;20461;-76
2024/01/30 23:56:49;;;;;;;4.80;3.65;;;;;;;;;;10165181;29;20485;-75
